createdAt,value
2022-10-04T00:01:16.198Z,13.61
2022-10-04T00:04:46.109Z,14.03
2022-10-04T00:08:25.587Z,14.38
2022-10-04T00:11:53.240Z,14.64
2022-10-04T00:15:25.573Z,14.34
2022-10-04T00:18:49.236Z,13.78
2022-10-04T00:22:41.779Z,13.40
2022-10-04T00:26:24.355Z,13.38
2022-10-04T00:30:10.710Z,13.00
2022-10-04T00:33:50.256Z,13.14
2022-10-04T00:37:17.493Z,13.14
2022-10-04T00:40:46.430Z,12.99
2022-10-04T00:44:19.183Z,13.03
2022-10-04T00:47:46.726Z,13.11
2022-10-04T00:51:12.022Z,13.10
2022-10-04T00:54:41.308Z,13.06
2022-10-04T00:58:07.480Z,13.00
2022-10-04T01:01:30.308Z,12.30
2022-10-04T01:04:52.381Z,12.31
2022-10-04T01:08:18.651Z,12.45
2022-10-04T01:11:48.260Z,12.55
2022-10-04T01:15:21.968Z,12.65
2022-10-04T01:18:43.792Z,12.66
2022-10-04T01:22:05.286Z,12.08
2022-10-04T01:25:47.276Z,11.72
2022-10-04T01:29:13.645Z,11.55
2022-10-04T01:32:41.578Z,11.43
2022-10-04T01:36:03.137Z,11.55
2022-10-04T01:39:26.178Z,11.67
2022-10-04T01:42:56.794Z,11.87
2022-10-04T01:46:27.640Z,12.08
2022-10-04T01:49:53.261Z,12.16
2022-10-04T01:53:42.797Z,12.18
2022-10-04T01:57:15.201Z,12.27
2022-10-04T02:00:41.769Z,12.34
2022-10-04T02:04:18.573Z,12.41
2022-10-04T02:07:44.702Z,12.86
2022-10-04T02:11:07.400Z,13.27
2022-10-04T02:14:33.290Z,13.65
2022-10-04T02:17:56.039Z,13.87
2022-10-04T02:21:18.963Z,14.08
2022-10-04T02:24:50.093Z,14.02
2022-10-04T02:28:14.031Z,13.78
2022-10-04T02:31:57.023Z,13.53
2022-10-04T02:35:24.131Z,13.23
2022-10-04T02:39:14.468Z,12.88
2022-10-04T02:43:02.719Z,12.34
2022-10-04T02:46:32.762Z,12.41
2022-10-04T02:50:08.604Z,12.21
2022-10-04T02:53:37.945Z,12.01
2022-10-04T02:56:59.902Z,11.69
2022-10-04T03:00:27.339Z,11.93
2022-10-04T03:03:48.976Z,11.80
2022-10-04T03:07:13.077Z,11.83
2022-10-04T03:10:38.379Z,11.93
2022-10-04T03:14:02.869Z,11.80
2022-10-04T03:17:25.160Z,11.83
2022-10-04T03:20:47.497Z,11.79
2022-10-04T03:24:18.812Z,11.67
2022-10-04T03:27:40.455Z,11.82
2022-10-04T03:31:02.176Z,11.89
2022-10-04T03:34:23.692Z,12.01
2022-10-04T03:37:47.779Z,12.10
2022-10-04T03:41:10.856Z,12.04
2022-10-04T03:44:32.698Z,12.10
2022-10-04T03:47:58.655Z,12.17
2022-10-04T03:51:23.216Z,12.21
2022-10-04T03:54:44.856Z,12.27
2022-10-04T03:58:10.627Z,12.23
2022-10-04T04:01:40.940Z,12.23
2022-10-04T04:05:37.395Z,12.30
2022-10-04T04:09:01.933Z,12.44
2022-10-04T04:12:39.437Z,12.78
2022-10-04T04:16:09.717Z,13.21
2022-10-04T04:19:33.749Z,13.59
2022-10-04T04:22:59.151Z,13.72
2022-10-04T04:26:27.409Z,13.85
2022-10-04T04:29:54.669Z,13.76
2022-10-04T04:33:26.840Z,13.64
2022-10-04T04:36:48.545Z,13.36
2022-10-04T04:40:25.392Z,13.14
2022-10-04T04:43:50.167Z,12.97
2022-10-04T04:47:34.027Z,12.40
2022-10-04T04:50:58.022Z,11.95
2022-10-04T04:54:29.976Z,12.01
2022-10-04T04:57:56.054Z,11.97
2022-10-04T05:01:25.832Z,12.03
2022-10-04T05:04:50.485Z,11.77
2022-10-04T05:08:36.007Z,11.77
2022-10-04T05:12:10.469Z,11.91
2022-10-04T05:15:35.286Z,12.27
2022-10-04T05:19:01.677Z,12.51
2022-10-04T05:22:27.339Z,12.62
2022-10-04T05:25:50.598Z,12.69
2022-10-04T05:29:18.298Z,12.66
2022-10-04T05:32:58.392Z,12.76
2022-10-04T05:36:22.240Z,12.78
2022-10-04T05:39:51.889Z,12.55
2022-10-04T05:43:28.341Z,12.68
2022-10-04T05:46:50.281Z,12.48
2022-10-04T05:50:33.059Z,12.49
2022-10-04T05:53:59.788Z,12.72
2022-10-04T05:57:27.733Z,12.96
2022-10-04T06:01:15.397Z,13.09
2022-10-04T06:04:52.366Z,13.09
2022-10-04T06:08:45.911Z,13.24
2022-10-04T06:12:16.685Z,13.43
2022-10-04T06:15:56.222Z,13.51
2022-10-04T06:19:48.246Z,13.59
2022-10-04T06:23:19.189Z,13.43
2022-10-04T06:26:46.749Z,13.14
2022-10-04T06:30:21.040Z,13.07
2022-10-04T06:34:03.276Z,13.17
2022-10-04T06:37:27.633Z,13.27
2022-10-04T06:40:55.385Z,13.43
2022-10-04T06:44:26.051Z,13.45
2022-10-04T06:48:06.216Z,13.55
2022-10-04T06:51:57.389Z,13.57
2022-10-04T06:55:18.916Z,13.41
2022-10-04T06:58:58.504Z,13.30
2022-10-04T07:02:39.690Z,13.34
2022-10-04T07:06:07.270Z,13.31
2022-10-04T07:09:29.272Z,13.45
2022-10-04T07:13:02.321Z,13.71
2022-10-04T07:16:35.001Z,13.69
2022-10-04T07:19:58.353Z,13.75
2022-10-04T07:23:37.160Z,13.74
2022-10-04T07:27:04.433Z,13.71
2022-10-04T07:30:38.733Z,13.54
2022-10-04T07:34:09.283Z,13.58
2022-10-04T07:37:39.310Z,13.51
2022-10-04T07:41:13.097Z,13.65
2022-10-04T07:44:40.995Z,13.75
2022-10-04T07:48:10.078Z,13.82
2022-10-04T07:51:50.164Z,14.36
2022-10-04T07:55:42.970Z,14.71
2022-10-04T07:59:23.130Z,15.19
2022-10-04T08:03:03.978Z,14.91
2022-10-04T08:06:44.844Z,14.88
2022-10-04T08:10:31.860Z,14.96
2022-10-04T08:14:23.742Z,14.93
2022-10-04T08:18:29.903Z,14.92
2022-10-04T08:21:56.709Z,15.06
2022-10-04T08:25:45.281Z,14.95
2022-10-04T08:29:44.617Z,14.91
2022-10-04T08:33:34.706Z,14.95
2022-10-04T08:37:43.702Z,14.93
2022-10-04T08:41:10.664Z,14.93
2022-10-04T08:44:44.018Z,14.93
2022-10-04T08:48:18.311Z,15.15
2022-10-04T08:51:45.636Z,15.13
2022-10-04T08:55:25.895Z,14.96
2022-10-04T08:59:38.372Z,15.15
2022-10-04T09:03:30.431Z,15.25
2022-10-04T09:07:06.418Z,15.03
2022-10-04T09:10:52.329Z,14.87
2022-10-04T09:14:48.525Z,14.91
2022-10-04T09:18:13.014Z,15.06
2022-10-04T09:21:58.889Z,15.26
2022-10-04T09:25:56.795Z,15.42
2022-10-04T09:29:53.614Z,15.32
2022-10-04T09:33:37.083Z,15.32
2022-10-04T09:37:16.400Z,15.50
2022-10-04T09:40:50.148Z,16.34
2022-10-04T09:44:37.923Z,17.07
2022-10-04T09:48:08.513Z,17.36
2022-10-04T09:51:35.978Z,17.43
2022-10-04T09:55:00.542Z,17.25
2022-10-04T09:59:03.059Z,17.24
2022-10-04T10:02:38.718Z,16.91
2022-10-04T10:06:41.163Z,16.85
2022-10-04T10:10:47.942Z,16.63
2022-10-04T10:14:27.141Z,16.29
2022-10-04T10:18:00.930Z,16.13
2022-10-04T10:21:23.766Z,16.25
2022-10-04T10:25:08.262Z,17.03
2022-10-04T10:28:29.788Z,17.61
2022-10-04T10:32:04.373Z,17.07
2022-10-04T10:35:52.600Z,16.97
2022-10-04T10:39:51.540Z,18.40
2022-10-04T10:43:41.628Z,18.99
2022-10-04T10:47:33.356Z,20.03
2022-10-04T10:51:16.062Z,19.81
2022-10-04T10:54:59.772Z,20.30
2022-10-04T10:59:01.804Z,20.26
2022-10-04T11:02:48.980Z,20.96
2022-10-04T11:06:14.023Z,21.47
2022-10-04T11:09:47.389Z,19.97
2022-10-04T11:13:14.857Z,19.53
2022-10-04T11:17:20.877Z,19.54
2022-10-04T11:21:18.223Z,19.06
2022-10-04T11:24:48.757Z,18.96
2022-10-04T11:28:31.772Z,18.04
2022-10-04T11:32:05.600Z,17.87
2022-10-04T11:35:39.367Z,18.03
2022-10-04T11:39:30.300Z,17.97
2022-10-04T11:43:21.657Z,17.87
2022-10-04T11:46:49.427Z,17.94
2022-10-04T11:50:30.006Z,18.01
2022-10-04T11:54:03.567Z,19.24
2022-10-04T11:57:33.497Z,20.10
2022-10-04T12:01:32.530Z,20.88
2022-10-04T12:05:21.437Z,21.70
2022-10-04T12:08:48.910Z,20.74
2022-10-04T12:12:41.297Z,20.05
2022-10-04T12:16:30.242Z,19.95
2022-10-04T12:19:54.825Z,19.75
2022-10-04T12:23:22.412Z,19.43
2022-10-04T12:26:49.146Z,20.05
2022-10-04T12:30:22.670Z,20.50
2022-10-04T12:34:06.041Z,20.47
2022-10-04T12:37:57.181Z,19.59
2022-10-04T12:41:34.882Z,18.89
2022-10-04T12:45:38.574Z,18.59
2022-10-04T12:49:25.926Z,18.49
2022-10-04T12:53:14.490Z,18.53
2022-10-04T12:57:16.396Z,18.35
2022-10-04T13:00:43.817Z,18.07
2022-10-04T13:04:22.334Z,17.84
2022-10-04T13:07:52.589Z,17.67
2022-10-04T13:11:20.729Z,17.83
2022-10-04T13:15:00.330Z,17.98
2022-10-04T13:18:43.918Z,18.27
2022-10-04T13:22:51.400Z,18.45
2022-10-04T13:26:35.470Z,18.11
2022-10-04T13:30:23.670Z,18.37
2022-10-04T13:33:53.542Z,18.52
2022-10-04T13:37:47.318Z,18.70
2022-10-04T13:41:33.226Z,18.73
2022-10-04T13:45:34.833Z,18.79
2022-10-04T13:49:24.237Z,18.77
2022-10-04T13:53:13.194Z,18.44
2022-10-04T13:56:37.469Z,18.40
2022-10-04T14:00:19.818Z,18.56
2022-10-04T14:03:50.298Z,18.61
2022-10-04T14:07:12.339Z,18.35
2022-10-04T14:10:36.902Z,18.35
2022-10-04T14:14:22.570Z,18.37
2022-10-04T14:18:14.633Z,18.32
2022-10-04T14:22:04.759Z,18.32
2022-10-04T14:26:02.806Z,18.25
2022-10-04T14:29:58.567Z,18.41
2022-10-04T14:34:01.705Z,18.27
2022-10-04T14:37:57.248Z,18.00
2022-10-04T14:41:45.533Z,17.89
2022-10-04T14:45:07.248Z,17.84
2022-10-04T14:48:53.650Z,17.96
2022-10-04T14:52:27.360Z,18.13
2022-10-04T14:56:30.249Z,17.93
2022-10-04T14:59:54.839Z,18.01
2022-10-04T15:03:31.649Z,18.10
2022-10-04T15:06:58.301Z,18.14
2022-10-04T15:10:24.957Z,18.11
2022-10-04T15:14:01.268Z,18.07
2022-10-04T15:17:36.512Z,18.08
2022-10-04T15:21:23.835Z,17.56
2022-10-04T15:24:51.072Z,17.53
2022-10-04T15:28:49.308Z,17.36
2022-10-04T15:32:35.262Z,17.43
2022-10-04T15:35:57.575Z,17.49
2022-10-04T15:39:40.592Z,18.30
2022-10-04T15:43:05.094Z,18.61
2022-10-04T15:46:34.121Z,18.95
2022-10-04T15:50:21.316Z,18.90
2022-10-04T15:54:05.155Z,18.59
2022-10-04T15:57:55.366Z,18.24
2022-10-04T16:01:35.632Z,17.87
2022-10-04T16:05:37.509Z,17.55
2022-10-04T16:09:26.228Z,17.24
2022-10-04T16:12:48.463Z,16.91
2022-10-04T16:16:16.256Z,16.87
2022-10-04T16:20:21.359Z,16.74
2022-10-04T16:23:45.822Z,16.64
2022-10-04T16:27:21.921Z,16.52
2022-10-04T16:31:20.086Z,16.50
2022-10-04T16:34:49.720Z,16.23
2022-10-04T16:38:17.036Z,16.21
2022-10-04T16:41:40.584Z,16.21
2022-10-04T16:45:27.523Z,16.00
2022-10-04T16:49:02.305Z,15.88
2022-10-04T16:53:10.705Z,15.80
2022-10-04T16:56:56.447Z,15.81
2022-10-04T17:00:47.970Z,15.83
2022-10-04T17:04:43.657Z,15.85
2022-10-04T17:08:32.747Z,15.80
2022-10-04T17:12:16.163Z,15.78
2022-10-04T17:15:56.986Z,15.74
2022-10-04T17:19:42.467Z,15.67
2022-10-04T17:23:04.020Z,15.57
2022-10-04T17:26:44.455Z,15.50
2022-10-04T17:30:18.573Z,15.49
2022-10-04T17:34:02.105Z,15.42
2022-10-04T17:37:30.288Z,15.42
2022-10-04T17:41:07.977Z,15.33
2022-10-04T17:45:07.779Z,15.51
2022-10-04T17:48:49.957Z,16.23
2022-10-04T17:52:39.964Z,16.80
2022-10-04T17:56:04.984Z,17.01
2022-10-04T17:59:31.266Z,17.01
2022-10-04T18:02:56.031Z,16.92
2022-10-04T18:06:26.019Z,16.77
2022-10-04T18:09:56.098Z,16.63
2022-10-04T18:13:45.452Z,16.33
2022-10-04T18:17:08.947Z,16.00
2022-10-04T18:20:37.268Z,15.73
2022-10-04T18:24:01.838Z,15.49
2022-10-04T18:27:26.928Z,15.32
2022-10-04T18:30:48.532Z,15.19
2022-10-04T18:34:20.233Z,15.06
2022-10-04T18:37:41.852Z,14.92
2022-10-04T18:41:17.894Z,14.79
2022-10-04T18:45:01.280Z,14.61
2022-10-04T18:48:54.531Z,14.47
2022-10-04T18:52:33.468Z,14.34
2022-10-04T18:56:03.673Z,14.24
2022-10-04T19:00:02.890Z,14.17
2022-10-04T19:03:32.543Z,14.13
2022-10-04T19:07:00.594Z,14.10
2022-10-04T19:10:30.905Z,14.10
2022-10-04T19:13:58.360Z,13.99
2022-10-04T19:17:38.392Z,13.95
2022-10-04T19:21:28.454Z,13.90
2022-10-04T19:24:56.317Z,13.83
2022-10-04T19:28:28.275Z,14.67
2022-10-04T19:32:12.637Z,14.51
2022-10-04T19:35:49.752Z,14.20
2022-10-04T19:39:41.088Z,13.85
2022-10-04T19:43:13.144Z,13.66
2022-10-04T19:46:56.316Z,13.57
2022-10-04T19:50:21.320Z,13.47
2022-10-04T19:53:47.088Z,13.37
2022-10-04T19:57:16.125Z,13.17
2022-10-04T20:00:40.450Z,13.11
2022-10-04T20:04:30.058Z,13.11
2022-10-04T20:08:01.479Z,13.18
2022-10-04T20:11:27.711Z,13.14
2022-10-04T20:14:51.475Z,13.13
2022-10-04T20:18:36.601Z,13.07
2022-10-04T20:22:07.519Z,12.99
2022-10-04T20:25:45.574Z,12.95
2022-10-04T20:29:10.356Z,13.16
2022-10-04T20:32:36.358Z,13.45
2022-10-04T20:36:00.393Z,13.65
2022-10-04T20:39:40.356Z,13.79
2022-10-04T20:43:13.912Z,13.92
2022-10-04T20:46:38.340Z,13.78
2022-10-04T20:50:01.776Z,13.61
2022-10-04T20:53:29.549Z,13.45
2022-10-04T20:56:56.219Z,13.28
2022-10-04T21:00:26.728Z,13.17
2022-10-04T21:03:48.392Z,13.02
2022-10-04T21:07:14.935Z,12.85
2022-10-04T21:10:56.419Z,12.75
2022-10-04T21:14:29.294Z,12.56
2022-10-04T21:18:11.443Z,12.35
2022-10-04T21:21:52.178Z,12.28
2022-10-04T21:25:48.603Z,12.17
2022-10-04T21:29:12.271Z,12.11
2022-10-04T21:32:40.259Z,12.11
2022-10-04T21:36:02.546Z,11.95
2022-10-04T21:39:24.583Z,11.87
2022-10-04T21:42:48.560Z,11.79
2022-10-04T21:46:16.469Z,11.75
2022-10-04T21:49:41.086Z,11.56
2022-10-04T21:53:05.006Z,11.49
2022-10-04T21:56:26.555Z,11.40
2022-10-04T21:59:48.098Z,11.35
2022-10-04T22:03:11.727Z,11.35
2022-10-04T22:06:35.805Z,11.29
2022-10-04T22:10:00.321Z,11.29
2022-10-04T22:13:21.859Z,11.29
2022-10-04T22:16:46.235Z,11.18
2022-10-04T22:20:08.319Z,11.21
2022-10-04T22:23:38.219Z,11.15
2022-10-04T22:27:02.381Z,11.08
2022-10-04T22:30:29.956Z,11.10
2022-10-04T22:33:54.758Z,11.06
2022-10-04T22:37:21.707Z,11.04
2022-10-04T22:40:43.391Z,10.96
2022-10-04T22:44:14.759Z,10.88
2022-10-04T22:47:36.414Z,10.79
2022-10-04T22:50:58.147Z,10.60
2022-10-04T22:54:26.123Z,10.52
2022-10-04T22:57:47.808Z,10.42
2022-10-04T23:01:14.853Z,10.35
2022-10-04T23:04:39.594Z,10.31
2022-10-04T23:08:01.367Z,10.38
2022-10-04T23:11:22.883Z,10.39
2022-10-04T23:14:46.671Z,10.36
2022-10-04T23:18:15.757Z,10.39
2022-10-04T23:21:38.785Z,10.36
2022-10-04T23:25:11.257Z,10.38
2022-10-04T23:28:32.874Z,10.38
2022-10-04T23:31:57.698Z,10.26
2022-10-04T23:35:26.008Z,10.28
2022-10-04T23:38:55.955Z,10.25
2022-10-04T23:42:20.582Z,10.15
2022-10-04T23:45:44.645Z,10.06
2022-10-04T23:49:13.510Z,9.85
2022-10-04T23:52:41.366Z,9.87
2022-10-04T23:56:12.001Z,9.71
2022-10-04T23:59:35.881Z,9.80
